createdAt,value
2023-06-03T00:04:49.205Z,2.58
2023-06-03T00:09:53.969Z,3.00
2023-06-03T00:14:57.382Z,2.88
2023-06-03T00:20:07.999Z,2.80
2023-06-03T00:25:13.251Z,3.17
2023-06-03T00:30:16.809Z,3.38
2023-06-03T00:35:21.611Z,2.75
2023-06-03T00:40:26.419Z,2.67
2023-06-03T00:45:29.880Z,3.25
2023-06-03T00:50:34.159Z,2.72
2023-06-03T00:55:39.528Z,2.72
2023-06-03T01:00:42.993Z,2.63
2023-06-03T01:05:47.661Z,2.55
2023-06-03T01:11:02.781Z,2.45
2023-06-03T01:16:08.434Z,2.60
2023-06-03T01:21:13.673Z,2.58
2023-06-03T01:26:20.271Z,2.53
2023-06-03T01:31:23.999Z,2.35
2023-06-03T01:36:27.399Z,3.00
2023-06-03T01:41:33.372Z,2.80
2023-06-03T01:46:38.126Z,2.70
2023-06-03T01:51:41.627Z,2.53
2023-06-03T01:56:46.854Z,2.60
2023-06-03T02:01:51.483Z,3.10
2023-06-03T02:06:56.737Z,2.70
2023-06-03T02:12:02.485Z,2.30
2023-06-03T02:17:06.419Z,2.55
2023-06-03T02:22:09.901Z,2.55
2023-06-03T02:27:15.639Z,2.83
2023-06-03T02:32:19.476Z,3.15
2023-06-03T02:37:23.906Z,2.50
2023-06-03T02:42:28.701Z,2.80
2023-06-03T02:47:32.958Z,2.90
2023-06-03T02:52:36.508Z,2.67
2023-06-03T02:57:42.870Z,2.30
2023-06-03T03:02:46.349Z,2.40
2023-06-03T03:07:49.844Z,2.58
2023-06-03T03:12:55.151Z,2.78
2023-06-03T03:17:59.762Z,2.95
2023-06-03T03:23:04.638Z,2.60
2023-06-03T03:28:09.564Z,2.90
2023-06-03T03:33:16.315Z,3.00
2023-06-03T03:38:20.880Z,3.10
2023-06-03T03:43:26.423Z,2.70
2023-06-03T03:48:32.371Z,2.60
2023-06-03T03:53:38.557Z,2.72
2023-06-03T03:58:49.849Z,2.58
2023-06-03T04:09:03.982Z,2.75
2023-06-03T04:14:11.658Z,2.65
2023-06-03T04:19:19.975Z,2.60
2023-06-03T04:24:24.001Z,3.08
2023-06-03T04:29:28.802Z,2.70
2023-06-03T04:34:32.592Z,3.22
2023-06-03T04:39:39.326Z,3.00
2023-06-03T04:44:44.434Z,2.47
2023-06-03T04:49:49.374Z,2.53
2023-06-03T04:54:53.029Z,2.92
2023-06-03T05:00:06.613Z,2.80
2023-06-03T05:05:11.259Z,2.97
2023-06-03T05:10:15.827Z,3.05
2023-06-03T05:15:21.413Z,3.47
2023-06-03T05:20:26.036Z,3.20
2023-06-03T05:25:29.970Z,3.00
2023-06-03T05:30:35.161Z,3.00
2023-06-03T05:35:39.589Z,2.92
2023-06-03T05:40:42.958Z,3.20
2023-06-03T05:45:49.268Z,2.92
2023-06-03T05:50:54.281Z,2.83
2023-06-03T05:55:59.705Z,3.28
2023-06-03T06:01:06.488Z,2.70
2023-06-03T06:06:10.120Z,2.88
2023-06-03T06:11:15.112Z,2.88
2023-06-03T06:16:20.199Z,2.78
2023-06-03T06:21:23.666Z,2.97
2023-06-03T06:26:27.743Z,3.17
2023-06-03T06:31:35.329Z,3.10
2023-06-03T06:36:50.529Z,2.78
2023-06-03T06:42:08.847Z,2.42
2023-06-03T06:47:14.584Z,3.45
2023-06-03T06:52:20.236Z,2.97
2023-06-03T06:57:26.185Z,3.35
2023-06-03T07:02:32.134Z,2.85
2023-06-03T07:07:36.023Z,2.88
2023-06-03T07:12:40.113Z,2.85
2023-06-03T07:17:50.521Z,3.90
2023-06-03T07:22:54.246Z,2.67
2023-06-03T07:27:57.806Z,3.40
2023-06-03T07:33:04.046Z,2.97
2023-06-03T07:38:08.224Z,2.72
2023-06-03T07:43:13.345Z,3.13
2023-06-03T07:48:18.614Z,2.85
2023-06-03T07:53:25.952Z,3.25
2023-06-03T07:58:30.124Z,2.83
2023-06-03T08:03:36.429Z,2.50
2023-06-03T08:08:40.001Z,3.20
2023-06-03T08:13:44.698Z,2.80
2023-06-03T08:18:51.751Z,2.88
2023-06-03T08:23:55.215Z,3.22
2023-06-03T08:28:59.770Z,3.17
2023-06-03T08:34:04.894Z,3.80
2023-06-03T08:39:09.169Z,3.75
2023-06-03T08:44:22.993Z,2.72
2023-06-03T08:49:42.715Z,3.78
2023-06-03T08:54:46.428Z,3.23
2023-06-03T08:59:53.614Z,3.40
2023-06-03T09:04:59.651Z,3.15
2023-06-03T09:10:04.315Z,3.13
2023-06-03T09:15:09.561Z,2.90
2023-06-03T09:20:15.498Z,3.50
2023-06-03T09:25:18.985Z,3.28
2023-06-03T09:30:22.998Z,3.20
2023-06-03T09:35:27.910Z,4.10
2023-06-03T09:40:31.598Z,3.17
2023-06-03T09:45:37.174Z,2.88
2023-06-03T09:50:51.397Z,3.22
2023-06-03T09:55:54.783Z,3.20
2023-06-03T10:00:59.972Z,3.65
2023-06-03T10:06:19.184Z,3.45
2023-06-03T10:11:24.327Z,3.45
2023-06-03T10:16:27.762Z,3.90
2023-06-03T10:21:33.235Z,3.17
2023-06-03T10:26:36.774Z,3.08
2023-06-03T10:31:41.863Z,3.60
2023-06-03T10:36:51.117Z,3.35
2023-06-03T10:41:56.665Z,3.57
2023-06-03T10:47:03.584Z,2.83
2023-06-03T10:52:37.304Z,4.13
2023-06-03T10:57:52.477Z,3.10
2023-06-03T11:03:06.435Z,3.05
2023-06-03T11:08:11.205Z,3.35
2023-06-03T11:13:42.674Z,3.55
2023-06-03T11:18:46.081Z,3.55
2023-06-03T11:23:51.173Z,3.08
2023-06-03T11:28:54.846Z,3.75
2023-06-03T11:34:26.483Z,3.17
2023-06-03T11:40:00.935Z,3.20
2023-06-03T11:45:28.798Z,3.20
2023-06-03T11:50:33.635Z,3.03
2023-06-03T11:55:38.389Z,3.80
2023-06-03T12:00:41.946Z,4.38
2023-06-03T12:05:53.927Z,4.45
2023-06-03T12:10:58.813Z,2.95
2023-06-03T12:16:02.314Z,3.80
2023-06-03T12:21:21.475Z,4.05
2023-06-03T12:26:27.363Z,3.33
2023-06-03T12:31:31.167Z,3.47
2023-06-03T12:36:47.874Z,3.42
2023-06-03T12:41:53.609Z,3.80
2023-06-03T12:47:05.438Z,3.25
2023-06-03T12:57:26.071Z,3.17
2023-06-03T13:02:29.650Z,3.00
2023-06-03T13:07:35.755Z,3.65
2023-06-03T13:12:42.508Z,3.63
2023-06-03T13:17:47.262Z,3.22
2023-06-03T13:22:50.883Z,3.45
2023-06-03T13:27:55.842Z,3.70
2023-06-03T13:32:59.924Z,3.50
2023-06-03T13:38:03.989Z,3.28
2023-06-03T13:43:08.835Z,3.33
2023-06-03T13:48:12.824Z,3.28
2023-06-03T13:53:16.348Z,3.20
2023-06-03T13:58:21.667Z,3.22
2023-06-03T14:03:25.083Z,3.10
2023-06-03T14:08:29.873Z,3.40
2023-06-03T14:13:34.635Z,3.25
2023-06-03T14:18:38.105Z,3.78
2023-06-03T14:23:41.543Z,2.97
2023-06-03T14:28:46.878Z,3.13
2023-06-03T14:33:50.286Z,3.30
2023-06-03T14:38:53.743Z,3.70
2023-06-03T14:43:59.505Z,3.22
2023-06-03T14:49:03.051Z,3.13
2023-06-03T14:54:06.635Z,3.42
2023-06-03T14:59:11.502Z,3.28
2023-06-03T15:04:15.567Z,3.55
2023-06-03T15:09:18.969Z,3.17
2023-06-03T15:14:24.882Z,3.67
2023-06-03T15:19:28.291Z,3.58
2023-06-03T15:24:31.924Z,3.13
2023-06-03T15:29:36.742Z,3.65
2023-06-03T15:34:40.106Z,3.45
2023-06-03T15:39:44.692Z,3.58
2023-06-03T15:44:49.443Z,3.50
2023-06-03T15:49:52.899Z,3.50
2023-06-03T15:54:56.576Z,2.80
2023-06-03T16:00:01.378Z,3.22
2023-06-03T16:05:05.488Z,3.05
2023-06-03T16:10:09.579Z,3.58
2023-06-03T16:15:14.544Z,3.47
2023-06-03T16:20:18.282Z,3.58
2023-06-03T16:25:21.818Z,3.60
2023-06-03T16:30:26.633Z,3.17
2023-06-03T16:35:30.052Z,3.58
2023-06-03T16:40:33.468Z,2.80
2023-06-03T16:45:38.510Z,3.03
2023-06-03T16:50:42.041Z,2.90
2023-06-03T16:55:45.596Z,3.40
2023-06-03T17:00:50.801Z,3.38
2023-06-03T17:05:54.165Z,3.63
2023-06-03T17:10:57.686Z,3.17
2023-06-03T17:16:03.345Z,3.50
2023-06-03T17:21:07.122Z,3.03
2023-06-03T17:26:10.929Z,3.45
2023-06-03T17:31:15.786Z,3.53
2023-06-03T17:36:19.301Z,3.10
2023-06-03T17:41:22.781Z,3.65
2023-06-03T17:46:27.655Z,3.33
2023-06-03T17:51:31.824Z,3.70
2023-06-03T17:56:35.220Z,3.47
2023-06-03T18:01:40.029Z,3.28
2023-06-03T18:06:43.495Z,3.40
2023-06-03T18:11:46.958Z,3.10
2023-06-03T18:16:51.903Z,3.63
2023-06-03T18:21:55.353Z,3.65
2023-06-03T18:26:58.894Z,3.95
2023-06-03T18:32:03.786Z,3.58
2023-06-03T18:37:08.145Z,3.58
2023-06-03T18:42:11.907Z,3.67
2023-06-03T18:47:16.784Z,3.70
2023-06-03T18:52:20.417Z,3.92
2023-06-03T18:57:23.819Z,3.42
2023-06-03T19:02:28.716Z,3.30
2023-06-03T19:07:32.302Z,2.92
2023-06-03T19:12:35.857Z,3.45
2023-06-03T19:17:40.768Z,3.42
2023-06-03T19:22:44.485Z,3.35
2023-06-03T19:27:47.907Z,3.28
2023-06-03T19:32:52.896Z,3.25
2023-06-03T19:37:56.426Z,3.88
2023-06-03T19:42:59.893Z,3.35
2023-06-03T19:48:04.895Z,3.35
2023-06-03T19:53:08.350Z,3.75
2023-06-03T19:58:13.752Z,3.65
2023-06-03T20:03:19.619Z,3.75
2023-06-03T20:08:23.357Z,3.30
2023-06-03T20:13:34.676Z,3.80
2023-06-03T20:18:40.392Z,4.05
2023-06-03T20:23:46.027Z,3.60
2023-06-03T20:28:49.668Z,4.05
2023-06-03T20:33:54.572Z,3.90
2023-06-03T20:38:57.986Z,3.47
2023-06-03T20:44:01.412Z,3.97
2023-06-03T20:49:06.306Z,3.83
2023-06-03T20:54:09.779Z,4.03
2023-06-03T20:59:13.220Z,3.85
2023-06-03T21:04:18.067Z,3.88
2023-06-03T21:09:21.685Z,3.88
2023-06-03T21:14:25.248Z,3.67
2023-06-03T21:19:31.370Z,3.33
2023-06-03T21:24:37.051Z,4.05
2023-06-03T21:29:40.648Z,3.60
2023-06-03T21:34:45.436Z,3.63
2023-06-03T21:39:48.940Z,3.70
2023-06-03T21:44:52.451Z,3.70
2023-06-03T21:49:57.223Z,3.60
2023-06-03T21:55:00.691Z,3.38
2023-06-03T22:00:11.495Z,3.70
2023-06-03T22:05:17.636Z,4.13
2023-06-03T22:10:21.220Z,4.35
2023-06-03T22:15:24.540Z,3.85
2023-06-03T22:20:29.765Z,4.32
2023-06-03T22:25:34.649Z,4.30
2023-06-03T22:30:38.062Z,4.50
2023-06-03T22:35:43.018Z,3.97
2023-06-03T22:40:49.943Z,4.07
2023-06-03T22:45:55.007Z,4.05
2023-06-03T22:50:59.846Z,4.20
2023-06-03T22:56:03.360Z,3.95
2023-06-03T23:01:07.037Z,4.57
2023-06-03T23:06:12.067Z,3.95
2023-06-03T23:11:15.530Z,3.58
2023-06-03T23:16:18.964Z,4.30
2023-06-03T23:21:25.963Z,4.50
2023-06-03T23:26:29.703Z,3.95
2023-06-03T23:31:33.253Z,4.05
2023-06-03T23:36:38.068Z,4.00
2023-06-03T23:41:41.442Z,4.55
2023-06-03T23:46:44.831Z,4.20
2023-06-03T23:51:49.631Z,4.50
2023-06-03T23:56:53.083Z,4.13
